Terminal Aerodrome Forecast
Issued by NWS

Home | Current Version | Previous Version | Text Only | Print | Product List | Glossary On
Versions: 1 2 3 4 5 6 7 8 9 10 11 12 13 14 15 16 17 18 19 20 21 22 23 24 25 26 27 28 29
701
FTUS43 KDLH 220520
TAFBRD
TAF
KBRD 220520Z 2206/2306 12007KT P6SM VCTS BKN050CB
     FM221100 16005KT 4SM BR VCSH FEW005 BKN060
     FM221300 16008KT P6SM BKN015
     FM221700 16015G21KT P6SM SCT025
     FM230200 18012KT P6SM SCT100=

USA.gov is the U.S. government's official web portal to all federal, state and local government web resources and services.